map of KIT home
KIT - Airport
Location
City:  Kithira, Attikí (Attica), Greece
ICAO:LGKC
IATA:KIT

Details
Type:Airport (Aerodrome, Airfield)
Latitude:36°16'27"N (36.274258)
Longitude:23°01'01"E (23.016978)
Datum:WGS 1984
Elevation:1045 ft (319 m)
Variation:4.31°E (WMM2015 magnetic declination)
0.10° annual change
Runways:1
Longest:4794 × 98 ft (1461 × 30 m), paved

Time
Time Zone:UTC+2 (DST+3)
Local Time:

Weather
METAR:LGKC 160950Z 00000KT 9999 FEW018TCU 13/08 Q1012

Related Locations
Nearby:
Farthest:RMT: 11459 mi / 18441 km
Rimatara [Rimatara Airport], PF

Find:

   beyond  
but within

Other Information
Maps:
NOTAMs:
Links:
Sources:

  
  • flag of Greece
  

Sectional Chart

Flight Planning
at skyvector.com

Satellite Image

Google Maps Satellite view

 

Copyright © 2004-2018 Karl L. Swartz. All rights reserved.
The Great Circle Mapper name and logo are trademarks of the Great Circle Mapper.
All other trademarks mentioned herein belong to their respective owners.
Please see credits for attibutions and further copyright information.

  Follow gcmap on Facebook Follow gcmap on Twitter Follow gcmap on Google+ GCmap on LinkedIn

hCard Microformat

Geo Microformat